Time;durP1;ratioP1;P1;durP2;ratioP2;P2;SDS_P1;SDS_P2;PMS_P1;PMS_P2;Temp;Humidity;BMP_temperature;BMP_pressure;BME280_temperature;BME280_humidity;BME280_pressure;Samples;Min_cycle;Max_cycle;Signal;HPM_P1;HPM_P2
2023/06/10 00:00:41;;;;;;;6.70;4.77;;;16.80;99.90;;;;;;5001166;28;20456;-84
2023/06/10 00:03:10;;;;;;;8.17;6.23;;;17.10;1.00;;;;;;5001319;28;20463;-84
2023/06/10 00:05:38;;;;;;;10.07;5.80;;;16.80;99.90;;;;;;5000430;28;20892;-84
2023/06/10 00:08:07;;;;;;;9.63;6.30;;;16.80;20.20;;;;;;5000602;28;20822;-84
2023/06/10 00:10:35;;;;;;;7.00;5.10;;;16.70;1.00;;;;;;5001778;28;20503;-85
2023/06/10 00:13:02;;;;;;;8.10;6.23;;;16.60;99.90;;;;;;5004059;28;20456;-85
2023/06/10 00:15:29;;;;;;;7.43;5.00;;;16.80;99.90;;;;;;5002667;28;20452;-85
2023/06/10 00:17:58;;;;;;;6.70;5.23;;;16.60;99.90;;;;;;5004962;28;20468;-85
2023/06/10 00:20:28;;;;;;;9.37;5.67;;;16.70;1.00;;;;;;5004821;28;20453;-85
2023/06/10 00:22:56;;;;;;;8.47;6.13;;;;;;;;;;5005367;28;20472;-85
2023/06/10 00:25:23;;;;;;;7.47;5.47;;;16.60;1.00;;;;;;5004196;28;20459;-85
2023/06/10 00:27:50;;;;;;;7.90;5.73;;;16.60;99.90;;;;;;5008288;28;20451;-85
2023/06/10 00:30:17;;;;;;;9.10;5.20;;;16.70;1.00;;;;;;5004591;28;20445;-85
2023/06/10 00:32:44;;;;;;;11.30;6.00;;;16.60;1.00;;;;;;5004115;28;20456;-85
2023/06/10 00:35:11;;;;;;;10.93;5.10;;;16.60;99.90;;;;;;5010528;28;20530;-84
2023/06/10 00:37:39;;;;;;;10.03;5.80;;;16.70;1.00;;;;;;5013362;28;20488;-83
2023/06/10 00:40:09;;;;;;;10.77;5.57;;;16.70;99.90;;;;;;5009915;28;20448;-84
2023/06/10 00:42:35;;;;;;;5.40;4.90;;;16.70;1.00;;;;;;5002143;28;20461;-84
2023/06/10 00:45:03;;;;;;;7.33;5.03;;;16.60;1.00;;;;;;5001245;28;20492;-84
2023/06/10 00:47:30;;;;;;;11.10;6.10;;;16.60;99.90;;;;;;5001551;28;20445;-84
2023/06/10 00:49:57;;;;;;;7.70;5.30;;;16.50;99.90;;;;;;5001460;28;20480;-84
2023/06/10 00:52:28;;;;;;;9.20;6.77;;;16.60;1.00;;;;;;5006099;28;21047;-84
2023/06/10 00:54:57;;;;;;;7.43;5.50;;;16.50;99.90;;;;;;5016987;28;20488;-83
2023/06/10 00:57:25;;;;;;;8.23;5.57;;;16.40;99.90;;;;;;5011537;28;20449;-84
2023/06/10 00:59:52;;;;;;;11.03;5.40;;;16.30;1.00;;;;;;5005252;28;20456;-84
2023/06/10 01:02:19;;;;;;;14.40;6.70;;;16.40;99.90;;;;;;5002320;28;20881;-84
2023/06/10 01:04:48;;;;;;;9.73;6.53;;;16.40;1.00;;;;;;5002893;28;20479;-84
2023/06/10 01:07:21;;;;;;;6.33;5.43;;;16.20;99.90;;;;;;5002325;28;20943;-84
2023/06/10 01:10:00;;;;;;;12.27;6.03;;;16.50;99.90;;;;;;5012452;28;20440;-84
2023/06/10 01:12:32;;;;;;;9.43;5.13;;;16.40;99.90;;;;;;5000054;28;20437;-84
2023/06/10 01:15:00;;;;;;;8.73;6.20;;;16.40;99.90;;;;;;5003424;28;20496;-84
2023/06/10 01:17:27;;;;;;;11.83;6.00;;;16.40;99.90;;;;;;5000349;28;20499;-84
2023/06/10 01:19:56;;;;;;;6.10;5.33;;;16.30;1.00;;;;;;5000667;28;20523;-84
2023/06/10 01:22:25;;;;;;;8.07;5.60;;;16.20;1.00;;;;;;5001911;28;20456;-84
2023/06/10 01:24:53;;;;;;;13.03;4.90;;;16.10;1.00;;;;;;5004244;28;20485;-84
2023/06/10 01:27:23;;;;;;;8.37;6.20;;;16.10;99.90;;;;;;5018755;28;20444;-84
2023/06/10 01:29:56;;;;;;;6.13;4.93;;;16.10;99.90;;;;;;5019132;28;20457;-84
2023/06/10 01:32:28;;;;;;;6.63;5.20;;;16.10;99.90;;;;;;5008831;28;20430;-84
2023/06/10 01:34:56;;;;;;;10.40;5.50;;;16.10;99.90;;;;;;5003876;28;20512;-84
2023/06/10 01:37:27;;;;;;;7.13;6.00;;;16.00;99.90;;;;;;5001721;28;20477;-84
2023/06/10 01:39:57;;;;;;;14.47;5.80;;;15.90;83.70;;;;;;5000330;28;20441;-84
2023/06/10 01:42:24;;;;;;;6.50;5.30;;;16.00;1.00;;;;;;5001647;28;20433;-84
2023/06/10 01:44:51;;;;;;;8.33;6.37;;;16.20;99.90;;;;;;5003026;28;20461;-84
2023/06/10 01:47:18;;;;;;;6.30;5.70;;;16.00;13.30;;;;;;5006494;28;20516;-84
2023/06/10 01:49:45;;;;;;;12.30;6.30;;;16.00;99.90;;;;;;5005998;28;20445;-84
2023/06/10 01:52:12;;;;;;;13.20;7.23;;;16.00;99.90;;;;;;5015943;28;20519;-84
2023/06/10 01:54:40;;;;;;;10.57;6.00;;;16.10;1.00;;;;;;5016315;28;20524;-83
2023/06/10 01:57:07;;;;;;;13.33;5.40;;;16.20;1.00;;;;;;5017176;28;20582;-84
2023/06/10 01:59:34;;;;;;;8.83;5.60;;;16.00;99.90;;;;;;5009903;28;20500;-85
2023/06/10 02:02:01;;;;;;;9.50;5.17;;;16.10;99.90;;;;;;5007754;28;20515;-85
2023/06/10 02:04:27;;;;;;;8.90;5.87;;;16.10;1.00;;;;;;5006442;28;20479;-84
2023/06/10 02:06:55;;;;;;;11.87;5.00;;;16.00;1.00;;;;;;5006013;28;20445;-84
2023/06/10 02:09:22;;;;;;;9.47;5.30;;;16.00;1.00;;;;;;5004547;28;20457;-85
2023/06/10 02:11:50;;;;;;;8.40;5.30;;;15.90;23.80;;;;;;5004164;28;20456;-84
2023/06/10 02:14:18;;;;;;;10.10;5.90;;;16.00;99.90;;;;;;5003500;28;20488;-85
2023/06/10 02:16:46;;;;;;;9.53;5.57;;;15.80;99.90;;;;;;5003544;28;20455;-84
2023/06/10 02:19:13;;;;;;;12.17;6.53;;;15.80;1.00;;;;;;5003036;28;20800;-84
2023/06/10 02:21:40;;;;;;;7.57;5.80;;;15.80;1.00;;;;;;5003102;28;20761;-85
2023/06/10 02:24:08;;;;;;;11.57;6.20;;;15.80;1.00;;;;;;5002596;28;20564;-84
2023/06/10 02:26:35;;;;;;;9.47;6.63;;;15.70;1.00;;;;;;5002559;28;20554;-84
2023/06/10 02:29:03;;;;;;;11.80;5.70;;;15.80;1.00;;;;;;5014730;28;20453;-84
2023/06/10 02:31:30;;;;;;;13.63;6.37;;;15.70;1.00;;;;;;5015274;28;20449;-84
2023/06/10 02:33:59;;;;;;;10.60;6.10;;;15.90;52.40;;;;;;5002056;28;20544;-84
2023/06/10 02:36:27;;;;;;;8.67;5.90;;;15.70;1.00;;;;;;5003781;28;20476;-84
2023/06/10 02:38:54;;;;;;;10.37;6.50;;;15.70;6.80;;;;;;4998763;28;20456;-84
2023/06/10 02:41:22;;;;;;;11.53;5.80;;;15.70;26.60;;;;;;5000906;28;20476;-84
2023/06/10 02:43:48;;;;;;;8.70;5.60;;;15.60;8.80;;;;;;5001429;28;20468;-84
2023/06/10 02:46:16;;;;;;;15.57;6.50;;;15.60;87.30;;;;;;5003571;28;20556;-84
2023/06/10 02:48:44;;;;;;;9.83;5.47;;;15.70;99.90;;;;;;5005952;28;20457;-85
2023/06/10 02:51:11;;;;;;;12.00;6.00;;;15.70;99.90;;;;;;5006177;28;20445;-84
2023/06/10 02:53:38;;;;;;;8.23;6.23;;;15.60;2.10;;;;;;5006542;28;20471;-84
2023/06/10 02:56:05;;;;;;;10.80;5.63;;;15.60;99.90;;;;;;5001173;28;20576;-84
2023/06/10 02:58:32;;;;;;;6.60;5.60;;;15.60;99.90;;;;;;5005070;28;20451;-84
2023/06/10 03:00:59;;;;;;;8.47;5.70;;;15.60;79.50;;;;;;5004599;28;20547;-84
2023/06/10 03:03:27;;;;;;;10.07;5.30;;;15.60;99.90;;;;;;5001015;28;20524;-84
2023/06/10 03:05:54;;;;;;;7.80;6.33;;;15.40;1.00;;;;;;5002896;28;20491;-84
2023/06/10 03:08:21;;;;;;;13.07;6.47;;;15.60;99.90;;;;;;5001751;28;20948;-84
2023/06/10 03:10:48;;;;;;;8.33;5.77;;;15.50;1.00;;;;;;5001003;28;20505;-84
2023/06/10 03:13:15;;;;;;;11.47;6.10;;;15.50;99.90;;;;;;5002560;28;20524;-84
2023/06/10 03:15:42;;;;;;;12.90;5.60;;;15.50;99.90;;;;;;5011492;28;20527;-84
2023/06/10 03:18:09;;;;;;;7.43;5.50;;;15.50;1.00;;;;;;5016654;28;20445;-84
2023/06/10 03:20:37;;;;;;;10.40;7.30;;;15.50;1.00;;;;;;5013180;28;20469;-84
2023/06/10 03:23:06;;;;;;;7.90;5.70;;;15.60;1.00;;;;;;5003729;28;20499;-84
2023/06/10 03:25:33;;;;;;;6.97;5.40;;;15.50;1.00;;;;;;5002702;28;20453;-84
2023/06/10 03:27:59;;;;;;;15.37;7.63;;;15.50;1.00;;;;;;5006751;28;20525;-84
2023/06/10 03:30:26;;;;;;;9.97;5.50;;;14.40;1.00;;;;;;5007881;28;20523;-84
2023/06/10 03:32:53;;;;;;;11.17;6.80;;;15.50;1.00;;;;;;5005454;28;20461;-85
2023/06/10 03:35:20;;;;;;;11.03;5.90;;;15.50;99.90;;;;;;5007401;28;20552;-84
2023/06/10 03:37:49;;;;;;;13.10;5.90;;;15.50;99.90;;;;;;5002442;28;20540;-84
2023/06/10 03:40:15;;;;;;;9.23;5.93;;;15.60;99.90;;;;;;5014370;28;20452;-84
2023/06/10 03:42:43;;;;;;;9.90;6.40;;;15.50;99.90;;;;;;5013758;28;20451;-84
2023/06/10 03:45:11;;;;;;;9.03;5.50;;;15.40;1.00;;;;;;5006875;28;20528;-84
2023/06/10 03:47:40;;;;;;;12.63;6.93;;;15.50;99.90;;;;;;5009248;28;20590;-84
2023/06/10 03:50:08;;;;;;;7.30;6.27;;;15.50;1.00;;;;;;5004646;28;20771;-84
2023/06/10 03:52:36;;;;;;;13.03;6.73;;;15.40;1.00;;;;;;5004004;28;20537;-84
2023/06/10 03:55:05;;;;;;;9.37;6.60;;;15.50;1.00;;;;;;5000406;28;20508;-85
2023/06/10 03:57:32;;;;;;;8.27;7.23;;;15.40;1.00;;;;;;5001579;28;20445;-84
2023/06/10 03:59:59;;;;;;;8.47;6.83;;;15.40;1.00;;;;;;5005543;28;20460;-84
2023/06/10 04:02:26;;;;;;;11.20;6.93;;;15.50;1.00;;;;;;5014239;28;20436;-83
2023/06/10 04:04:52;;;;;;;9.23;7.60;;;15.60;1.00;;;;;;5016195;28;20476;-83
2023/06/10 04:07:20;;;;;;;10.90;6.57;;;15.60;1.00;;;;;;5018208;28;20457;-84
2023/06/10 04:09:47;;;;;;;10.10;7.97;;;15.60;99.90;;;;;;5013549;28;20536;-84
2023/06/10 04:12:15;;;;;;;12.57;6.50;;;15.50;1.00;;;;;;5011070;28;20436;-84
2023/06/10 04:14:42;;;;;;;8.77;6.83;;;15.60;99.90;;;;;;5009976;28;20232;-84
2023/06/10 04:17:09;;;;;;;9.33;6.73;;;15.70;1.00;;;;;;5007728;28;20456;-84
2023/06/10 04:19:36;;;;;;;10.90;6.80;;;15.80;1.00;;;;;;5003589;28;20445;-84
2023/06/10 04:22:05;;;;;;;8.00;6.57;;;15.70;71.60;;;;;;5002958;28;20544;-84
2023/06/10 04:24:31;;;;;;;12.17;6.10;;;15.60;99.90;;;;;;5003274;28;20839;-84
2023/06/10 04:26:59;;;;;;;12.80;6.87;;;15.80;99.90;;;;;;5006804;28;20448;-84
2023/06/10 04:29:27;;;;;;;12.13;7.40;;;15.70;35.20;;;;;;5003153;28;20472;-85
2023/06/10 04:31:54;;;;;;;10.43;7.70;;;15.80;1.00;;;;;;5000542;28;20457;-85
2023/06/10 04:34:20;;;;;;;15.07;7.30;;;16.30;1.00;;;;;;4999114;28;20480;-86
2023/06/10 04:36:47;;;;;;;11.50;7.40;;;15.80;99.90;;;;;;5000077;28;20448;-85
2023/06/10 04:39:16;;;;;;;9.77;6.87;;;16.00;99.90;;;;;;5001799;28;20453;-85
2023/06/10 04:41:43;;;;;;;9.50;6.97;;;16.00;1.00;;;;;;5001243;28;20452;-84
2023/06/10 04:44:10;;;;;;;10.77;7.10;;;16.00;1.00;;;;;;5000167;28;20572;-84
2023/06/10 04:46:39;;;;;;;10.27;6.70;;;16.00;99.90;;;;;;5000551;28;20822;-84
2023/06/10 04:49:05;;;;;;;17.93;7.73;;;16.00;1.00;;;;;;4999782;28;20449;-85
2023/06/10 04:51:32;;;;;;;11.47;6.40;;;16.00;1.00;;;;;;4999928;28;20484;-84
2023/06/10 04:54:02;;;;;;;14.33;7.43;;;15.90;1.00;;;;;;5005228;28;20457;-84
2023/06/10 04:56:29;;;;;;;9.77;7.63;;;15.90;99.90;;;;;;5003500;28;20488;-84
2023/06/10 04:58:56;;;;;;;11.30;8.47;;;16.00;1.00;;;;;;4999819;28;20819;-85
2023/06/10 05:01:23;;;;;;;12.47;7.70;;;16.00;99.90;;;;;;4999697;28;20455;-85
2023/06/10 05:03:52;;;;;;;15.03;7.93;;;16.10;99.90;;;;;;5002319;28;20507;-84
2023/06/10 05:06:19;;;;;;;12.60;8.37;;;16.50;99.90;;;;;;5003701;28;20451;-85
2023/06/10 05:08:45;;;;;;;9.83;7.63;;;16.10;1.00;;;;;;5003329;28;20484;-84
2023/06/10 05:11:12;;;;;;;14.13;7.57;;;16.10;1.00;;;;;;5004473;28;20449;-84
2023/06/10 05:13:40;;;;;;;11.20;7.60;;;16.10;1.00;;;;;;5004589;28;20503;-85
2023/06/10 05:16:07;;;;;;;10.70;6.90;;;16.30;1.00;;;;;;5003307;28;20538;-84
2023/06/10 05:18:35;;;;;;;13.33;7.23;;;16.30;99.90;;;;;;5004010;28;20457;-85
2023/06/10 05:21:03;;;;;;;11.63;6.93;;;16.50;50.00;;;;;;5003704;28;20486;-84
2023/06/10 05:23:30;;;;;;;10.63;7.37;;;16.60;1.00;;;;;;5002797;28;20469;-84
2023/06/10 05:25:58;;;;;;;8.93;6.70;;;16.50;1.00;;;;;;5003662;28;20936;-83
2023/06/10 05:28:25;;;;;;;11.87;7.00;;;16.80;99.90;;;;;;5003098;28;20481;-84
2023/06/10 05:30:52;;;;;;;7.40;6.53;;;16.90;99.90;;;;;;5003789;28;20527;-84
2023/06/10 05:33:19;;;;;;;17.70;8.63;;;16.90;99.90;;;;;;5003230;28;20475;-84
2023/06/10 05:35:46;;;;;;;12.33;8.60;;;17.00;44.10;;;;;;5003672;28;20468;-84
2023/06/10 05:38:14;;;;;;;11.80;7.70;;;17.10;1.00;;;;;;5003468;28;20452;-84
2023/06/10 05:40:41;;;;;;;9.80;7.40;;;17.20;1.00;;;;;;5007471;28;20437;-85
2023/06/10 05:43:09;;;;;;;9.70;7.93;;;17.20;99.90;;;;;;5021340;28;20496;-85
2023/06/10 05:45:36;;;;;;;10.30;7.30;;;17.40;1.00;;;;;;5021153;28;20433;-84
2023/06/10 05:48:03;;;;;;;10.00;7.00;;;17.50;1.00;;;;;;5020091;28;20441;-84
2023/06/10 05:50:30;;;;;;;7.77;7.07;;;17.70;28.40;;;;;;5004458;28;20519;-84
2023/06/10 05:52:59;;;;;;;11.87;8.20;;;17.70;1.00;;;;;;5004427;28;20962;-84
2023/06/10 05:55:27;;;;;;;9.80;8.13;;;17.80;99.90;;;;;;4999734;28;20516;-84
2023/06/10 05:58:00;;;;;;;12.73;7.50;;;17.80;99.90;;;;;;5003384;28;20469;-84
2023/06/10 06:00:27;;;;;;;11.37;7.20;;;;;;;;;;5007798;28;20806;-85
2023/06/10 06:02:57;;;;;;;12.07;7.57;;;18.10;99.90;;;;;;5012546;28;20437;-84
2023/06/10 06:05:23;;;;;;;8.73;7.83;;;18.10;99.90;;;;;;5002924;28;20577;-84
2023/06/10 06:07:50;;;;;;;10.50;7.87;;;18.10;97.30;;;;;;5018557;28;20476;-84
2023/06/10 06:10:18;;;;;;;9.67;7.10;;;18.30;99.90;;;;;;5012529;28;20509;-85
2023/06/10 06:12:46;;;;;;;10.00;7.23;;;18.30;32.50;;;;;;5003977;28;20475;-85
2023/06/10 06:15:13;;;;;;;8.93;8.03;;;18.40;89.60;;;;;;5002971;28;20580;-84
2023/06/10 06:17:40;;;;;;;11.17;7.40;;;18.50;99.90;;;;;;5003589;28;20445;-85
2023/06/10 06:20:08;;;;;;;10.00;7.60;;;18.60;1.00;;;;;;5003518;28;20449;-85
2023/06/10 06:22:35;;;;;;;13.60;8.00;;;18.70;1.00;;;;;;5004661;28;20536;-84
2023/06/10 06:25:02;;;;;;;8.87;7.97;;;18.80;1.00;;;;;;5003021;28;20532;-85
2023/06/10 06:27:29;;;;;;;9.60;8.37;;;18.80;1.00;;;;;;5003537;28;21011;-84
2023/06/10 06:29:57;;;;;;;10.37;7.60;;;18.90;1.00;;;;;;5004490;28;20483;-84
2023/06/10 06:32:27;;;;;;;12.77;8.70;;;18.80;1.00;;;;;;5010715;28;20871;-84
2023/06/10 06:41:40;;;;;;;9.47;8.57;;;19.10;1.00;;;;;;4942686;29;20447;-89
2023/06/10 06:44:49;;;;;;;9.00;8.10;;;19.10;1.00;;;;;;4904920;29;20470;-89
2023/06/10 06:51:36;;;;;;;8.03;7.23;;;19.20;1.00;;;;;;4910691;29;20459;-89
2023/06/10 07:04:48;;;;;;;8.70;7.80;;;19.60;1.00;;;;;;4981159;28;20469;-91
2023/06/10 07:11:10;;;;;;;12.27;8.17;;;20.10;1.00;;;;;;4973858;28;20438;-89
2023/06/10 07:18:32;;;;;;;8.83;8.07;;;20.30;1.00;;;;;;4897602;29;20444;-90
2023/06/10 07:22:17;;;;;;;;;;;;;;;;;;;;;
2023/06/10 07:27:49;;;;;;;8.67;7.83;;;;;;;;;;4947638;28;20873;-93
2023/06/10 07:37:08;;;;;;;10.73;8.90;;;20.60;1.00;;;;;;4980796;28;20529;-90
2023/06/10 08:01:45;;;;;;;8.73;7.80;;;;;;;;;;5013745;28;20460;-88
2023/06/10 08:10:58;;;;;;;9.17;8.30;;;21.80;99.90;;;;;;5036938;23;20544;-84
2023/06/10 08:13:25;;;;;;;9.13;7.70;;;;;;;;;;5011869;28;20436;-85
2023/06/10 08:15:54;;;;;;;11.83;9.30;;;21.90;1.00;;;;;;5009582;28;20512;-85
2023/06/10 08:18:22;;;;;;;11.60;8.80;;;21.90;99.90;;;;;;5008992;28;20513;-85
2023/06/10 08:20:48;;;;;;;13.93;10.07;;;22.00;1.00;;;;;;5006504;28;20495;-85
2023/06/10 08:23:15;;;;;;;10.70;8.87;;;22.10;1.00;;;;;;5011375;28;20463;-84
2023/06/10 08:25:42;;;;;;;10.70;9.30;;;22.20;1.00;;;;;;5005752;28;20457;-84
2023/06/10 08:28:13;;;;;;;11.40;8.00;;;22.10;1.00;;;;;;5007998;28;20885;-85
2023/06/10 08:30:40;;;;;;;10.10;9.10;;;22.10;1.00;;;;;;5002208;28;20456;-85
2023/06/10 08:33:07;;;;;;;10.70;9.60;;;22.10;1.00;;;;;;5005022;28;20522;-85
2023/06/10 08:35:34;;;;;;;9.33;8.50;;;22.20;1.00;;;;;;5005649;28;20457;-84
2023/06/10 08:38:01;;;;;;;11.60;9.57;;;22.30;1.00;;;;;;5007541;28;20555;-85
2023/06/10 08:40:27;;;;;;;16.30;8.30;;;22.40;99.90;;;;;;5008163;28;20512;-85
2023/06/10 08:43:01;;;;;;;12.17;9.37;;;22.50;1.00;;;;;;5007495;28;20524;-85
2023/06/10 08:45:32;;;;;;;10.97;9.97;;;22.60;1.00;;;;;;5007246;28;20429;-85
2023/06/10 08:47:59;;;;;;;9.20;8.30;;;22.70;1.00;;;;;;5008203;28;20439;-85
2023/06/10 08:50:30;;;;;;;10.37;9.47;;;22.90;99.90;;;;;;5005897;28;20567;-85
2023/06/10 08:52:59;;;;;;;11.87;9.30;;;23.00;99.90;;;;;;5009727;28;20446;-84
2023/06/10 08:55:31;;;;;;;10.87;9.70;;;22.90;99.90;;;;;;5021508;28;20496;-85
2023/06/10 08:58:00;;;;;;;12.17;9.63;;;23.10;99.90;;;;;;5020581;28;20440;-85
2023/06/10 09:00:29;;;;;;;10.47;9.43;;;23.30;99.90;;;;;;5016205;28;20486;-85
2023/06/10 09:02:57;;;;;;;11.43;9.43;;;23.80;1.00;;;;;;5013129;28;20551;-85
2023/06/10 09:05:24;;;;;;;10.57;9.53;;;;;;;;;;5013471;28;20460;-85
2023/06/10 09:07:52;;;;;;;10.73;9.60;;;23.50;99.90;;;;;;5014935;28;20484;-84
2023/06/10 09:10:19;;;;;;;10.50;9.50;;;23.30;1.00;;;;;;5013220;28;20628;-86
2023/06/10 09:12:47;;;;;;;10.63;9.70;;;23.70;99.90;;;;;;5006931;28;20527;-85
2023/06/10 09:15:14;;;;;;;10.30;9.40;;;23.80;1.00;;;;;;5012658;28;20930;-84
2023/06/10 09:17:45;;;;;;;9.97;9.00;;;23.90;1.00;;;;;;5010117;28;20480;-86
2023/06/10 09:20:12;;;;;;;9.37;8.57;;;23.70;99.90;;;;;;5007156;28;20993;-85
2023/06/10 09:22:40;;;;;;;11.17;8.70;;;;;;;;;;5005696;28;20461;-85
2023/06/10 09:25:08;;;;;;;10.97;8.60;;;23.80;99.90;;;;;;5006692;28;20455;-85
2023/06/10 09:27:45;;;;;;;10.83;9.83;;;23.90;99.90;;;;;;5007330;28;20488;-85
2023/06/10 09:30:25;;;;;;;12.87;9.00;;;24.10;99.90;;;;;;5007012;28;20460;-85
2023/06/10 09:32:55;;;;;;;24.10;10.67;;;24.30;99.90;;;;;;5009910;28;20422;-83
2023/06/10 09:35:23;;;;;;;9.73;8.73;;;24.40;99.90;;;;;;5017504;28;20444;-83
2023/06/10 09:37:53;;;;;;;15.13;9.27;;;24.70;99.90;;;;;;5018177;28;20448;-84
2023/06/10 09:40:21;;;;;;;10.03;8.87;;;24.70;99.90;;;;;;5011458;28;20483;-84
2023/06/10 09:42:54;;;;;;;12.37;8.53;;;24.80;99.90;;;;;;5006840;28;20507;-85
2023/06/10 09:45:22;;;;;;;9.57;8.67;;;24.80;99.90;;;;;;5007357;28;20433;-84
2023/06/10 09:47:52;;;;;;;9.07;8.27;;;24.80;99.90;;;;;;5008707;28;20562;-85
2023/06/10 09:50:20;;;;;;;13.57;9.00;;;24.80;99.90;;;;;;5002163;28;20499;-86
2023/06/10 09:52:48;;;;;;;12.97;9.33;;;24.70;99.90;;;;;;5002507;28;20456;-84
2023/06/10 09:55:15;;;;;;;12.30;7.33;;;;;;;;;;5001672;28;20452;-85
2023/06/10 09:57:45;;;;;;;8.67;7.60;;;24.60;99.90;;;;;;5001926;28;20464;-85
2023/06/10 10:00:13;;;;;;;10.37;8.13;;;24.70;99.90;;;;;;5004359;28;20472;-85
2023/06/10 10:02:48;;;;;;;9.63;8.73;;;24.40;99.90;;;;;;5007608;28;20452;-85
2023/06/10 10:05:15;;;;;;;12.83;9.47;;;24.20;99.90;;;;;;5019445;28;20448;-84
2023/06/10 10:07:45;;;;;;;10.13;8.07;;;24.00;99.90;;;;;;5019011;28;20495;-83
2023/06/10 10:10:13;;;;;;;9.00;8.20;;;23.70;99.90;;;;;;4973012;28;1199312;-84
2023/06/10 10:12:41;;;;;;;10.03;7.73;;;23.70;99.90;;;;;;5004570;28;20228;-84
2023/06/10 10:15:10;;;;;;;10.30;8.90;;;23.70;99.90;;;;;;5003001;28;20511;-84
2023/06/10 10:17:41;;;;;;;8.57;7.60;;;23.30;1.00;;;;;;5002554;28;21008;-84
2023/06/10 10:20:09;;;;;;;9.50;8.63;;;23.50;99.90;;;;;;5004954;28;20896;-85
2023/06/10 10:22:39;;;;;;;9.30;8.37;;;23.60;99.90;;;;;;5004562;28;20479;-85
2023/06/10 10:25:12;;;;;;;9.97;8.20;;;23.50;99.90;;;;;;5003967;28;20802;-85
2023/06/10 10:27:45;;;;;;;9.33;8.43;;;23.50;99.90;;;;;;5004759;28;20465;-84
2023/06/10 10:30:15;;;;;;;9.27;8.43;;;23.60;99.90;;;;;;5012616;28;20472;-85
2023/06/10 10:32:52;;;;;;;11.83;8.10;;;23.60;99.90;;;;;;5015824;28;20433;-85
2023/06/10 10:35:23;;;;;;;8.50;7.60;;;24.20;1.00;;;;;;5016435;28;20452;-84
2023/06/10 10:37:50;;;;;;;10.13;8.30;;;23.90;99.90;;;;;;5006514;28;20433;-84
2023/06/10 10:40:21;;;;;;;9.77;8.60;;;24.00;99.90;;;;;;5010960;28;20494;-84
2023/06/10 10:42:49;;;;;;;7.77;7.07;;;24.00;99.90;;;;;;5004137;28;20429;-84
2023/06/10 10:45:16;;;;;;;6.97;6.43;;;24.10;99.90;;;;;;5001483;28;20502;-84
2023/06/10 10:47:45;;;;;;;8.40;6.00;;;24.20;99.90;;;;;;5001636;28;20484;-84
2023/06/10 10:53:38;;;;;;;6.10;5.60;;;24.70;99.90;;;;;;4996649;28;20444;-84
2023/06/10 10:56:14;;;;;;;6.90;5.97;;;24.70;99.90;;;;;;5004014;28;20440;-85
2023/06/10 10:58:41;;;;;;;8.33;6.40;;;25.20;1.00;;;;;;5004163;28;20516;-85
2023/06/10 11:01:12;;;;;;;7.20;6.27;;;25.00;99.90;;;;;;5003396;28;20513;-85
2023/06/10 11:03:45;;;;;;;6.00;5.40;;;25.10;99.90;;;;;;5006254;28;20920;-85
2023/06/10 11:06:14;;;;;;;6.20;5.80;;;25.20;99.90;;;;;;5005016;28;20431;-85
2023/06/10 11:08:48;;;;;;;6.17;5.40;;;25.70;1.00;;;;;;5003726;28;20503;-85
2023/06/10 11:11:28;;;;;;;8.00;6.67;;;25.50;99.90;;;;;;5005656;28;20512;-85
2023/06/10 11:14:09;;;;;;;8.00;6.90;;;25.40;99.90;;;;;;5005038;28;20417;-85
2023/06/10 11:16:45;;;;;;;7.53;6.93;;;25.50;99.90;;;;;;5015725;28;20437;-85
2023/06/10 11:19:32;;;;;;;6.70;6.10;;;25.40;99.90;;;;;;5013472;28;20479;-85
2023/06/10 11:22:00;;;;;;;7.23;6.60;;;25.50;99.90;;;;;;5010209;28;20450;-85
2023/06/10 11:24:27;;;;;;;8.10;7.20;;;25.40;99.90;;;;;;5001842;28;20928;-84
2023/06/10 11:26:55;;;;;;;8.03;7.33;;;25.60;1.00;;;;;;5002336;28;20508;-84
2023/06/10 11:29:23;;;;;;;8.73;7.30;;;25.50;99.90;;;;;;5002075;28;20492;-84
2023/06/10 11:31:55;;;;;;;8.10;6.80;;;25.50;99.90;;;;;;5000083;28;20479;-84
2023/06/10 11:34:26;;;;;;;7.33;6.60;;;25.50;1.00;;;;;;5003517;28;20479;-85
2023/06/10 11:36:54;;;;;;;6.33;5.73;;;;;;;;;;5002049;28;20503;-84
2023/06/10 11:39:26;;;;;;;8.40;7.70;;;25.70;99.90;;;;;;5003670;28;20480;-85
2023/06/10 11:41:55;;;;;;;8.63;7.83;;;25.80;99.90;;;;;;5003505;28;20468;-85
2023/06/10 11:44:22;;;;;;;11.97;8.80;;;25.90;99.90;;;;;;5008951;28;20457;-83
2023/06/10 11:46:50;;;;;;;9.63;7.57;;;25.90;99.90;;;;;;5015499;28;20480;-84
2023/06/10 11:49:17;;;;;;;7.53;6.87;;;25.90;99.90;;;;;;5015844;28;20473;-85
2023/06/10 11:51:49;;;;;;;12.73;8.13;;;;;;;;;;5016493;28;20465;-85
2023/06/10 11:54:17;;;;;;;9.43;7.53;;;26.50;1.00;;;;;;5005089;28;20966;-85
2023/06/10 11:56:44;;;;;;;7.80;7.00;;;26.10;99.90;;;;;;5002740;28;20451;-85
2023/06/10 11:59:15;;;;;;;8.50;7.70;;;26.00;99.90;;;;;;5005960;28;20492;-85
2023/06/10 12:01:44;;;;;;;8.80;8.00;;;26.00;99.90;;;;;;5005876;28;20448;-84
2023/06/10 12:04:13;;;;;;;7.17;6.60;;;25.90;99.90;;;;;;5008570;28;20540;-85
2023/06/10 12:06:41;;;;;;;10.50;7.50;;;25.90;99.90;;;;;;5005855;28;20535;-84
2023/06/10 12:09:13;;;;;;;8.07;7.40;;;25.80;99.90;;;;;;5009540;28;20539;-85
2023/06/10 12:11:41;;;;;;;7.40;5.73;;;25.80;99.90;;;;;;5018246;28;20504;-85
2023/06/10 12:14:08;;;;;;;7.13;6.43;;;;;;;;;;5007621;28;20428;-85
2023/06/10 12:16:36;;;;;;;5.80;5.30;;;25.70;99.90;;;;;;5008019;28;20456;-85
2023/06/10 12:19:04;;;;;;;7.07;6.37;;;25.60;99.90;;;;;;5021317;28;20452;-85
2023/06/10 12:21:32;;;;;;;6.47;5.97;;;25.70;99.90;;;;;;5022806;28;20463;-85
2023/06/10 12:24:04;;;;;;;7.20;6.70;;;25.80;99.90;;;;;;5018264;28;20880;-85
2023/06/10 12:26:42;;;;;;;9.00;7.60;;;25.90;99.90;;;;;;5021265;28;20491;-85
2023/06/10 12:29:20;;;;;;;7.27;6.67;;;25.90;99.90;;;;;;5020314;28;20463;-85
2023/06/10 12:32:02;;;;;;;8.17;7.33;;;26.00;99.90;;;;;;5008080;28;20463;-85
2023/06/10 12:34:35;;;;;;;9.07;8.00;;;26.00;99.90;;;;;;5008199;28;20467;-85
2023/06/10 12:37:03;;;;;;;11.27;8.47;;;26.00;99.90;;;;;;5009693;28;20441;-84
2023/06/10 12:39:31;;;;;;;10.10;8.33;;;26.00;99.90;;;;;;5006812;28;20471;-85
2023/06/10 12:41:59;;;;;;;9.83;8.30;;;26.00;99.90;;;;;;5014033;28;20494;-84
2023/06/10 12:44:30;;;;;;;9.57;8.77;;;26.10;99.90;;;;;;5014794;28;20487;-85
2023/06/10 12:46:58;;;;;;;8.83;8.13;;;26.20;99.90;;;;;;5017512;28;20448;-85
2023/06/10 12:49:26;;;;;;;9.47;8.60;;;26.00;1.00;;;;;;5014013;28;20552;-85
2023/06/10 12:51:53;;;;;;;11.13;10.03;;;26.30;99.90;;;;;;5014453;28;20432;-85
2023/06/10 12:54:20;;;;;;;19.03;14.47;;;26.40;99.90;;;;;;5020787;28;20456;-84
2023/06/10 12:56:47;;;;;;;10.30;9.30;;;26.70;1.00;;;;;;5017090;28;20461;-85
2023/06/10 12:59:14;;;;;;;11.63;9.90;;;26.40;99.90;;;;;;5014453;28;20478;-85
2023/06/10 13:01:41;;;;;;;10.40;9.47;;;26.40;99.90;;;;;;5011129;28;20444;-85
2023/06/10 13:04:09;;;;;;;9.50;8.70;;;26.40;99.90;;;;;;5007707;28;20483;-85
2023/06/10 13:06:38;;;;;;;11.03;10.13;;;;;;;;;;5008428;28;20457;-85
2023/06/10 13:09:06;;;;;;;13.83;9.13;;;26.90;1.00;;;;;;5009039;28;20487;-85
2023/06/10 13:11:33;;;;;;;10.10;9.27;;;26.40;99.90;;;;;;5008193;28;20463;-86
2023/06/10 13:14:00;;;;;;;9.90;8.90;;;26.60;1.00;;;;;;5009261;28;20519;-86
2023/06/10 13:16:27;;;;;;;10.17;9.27;;;26.60;99.90;;;;;;5006928;28;20452;-85
2023/06/10 13:18:54;;;;;;;12.37;11.13;;;26.70;99.90;;;;;;5006841;28;20563;-86
2023/06/10 13:21:23;;;;;;;10.00;9.20;;;26.80;99.90;;;;;;5006835;28;20454;-86
2023/06/10 13:23:50;;;;;;;9.73;8.90;;;;;;;;;;5007762;28;20456;-85
2023/06/10 13:26:17;;;;;;;10.83;9.70;;;26.90;99.90;;;;;;5006290;28;20967;-85
2023/06/10 13:28:44;;;;;;;9.50;8.37;;;26.90;1.00;;;;;;5006265;28;20933;-84
2023/06/10 13:31:11;;;;;;;9.70;8.87;;;26.80;99.90;;;;;;5008246;28;20448;-85
2023/06/10 13:33:40;;;;;;;9.83;8.60;;;26.90;99.90;;;;;;5009067;28;20478;-84
2023/06/10 13:36:07;;;;;;;9.77;8.87;;;26.90;99.90;;;;;;5007950;28;20452;-85
2023/06/10 13:38:35;;;;;;;9.97;9.00;;;27.30;1.00;;;;;;5010951;28;20499;-86
2023/06/10 13:41:02;;;;;;;11.13;10.20;;;27.20;1.00;;;;;;5017121;28;20512;-85
2023/06/10 13:43:29;;;;;;;12.77;9.83;;;;;;;;;;5013188;28;20478;-85
2023/06/10 13:45:57;;;;;;;12.03;9.40;;;26.80;99.90;;;;;;5008634;28;20452;-85
2023/06/10 13:48:24;;;;;;;9.93;9.13;;;26.70;99.90;;;;;;5008041;28;20515;-84
2023/06/10 13:50:51;;;;;;;11.70;9.20;;;26.70;99.90;;;;;;5009213;28;20901;-84
2023/06/10 13:53:18;;;;;;;10.10;9.07;;;26.60;1.00;;;;;;5004411;28;20465;-84
2023/06/10 13:55:46;;;;;;;13.03;10.00;;;27.10;99.90;;;;;;5003692;28;20452;-84
2023/06/10 13:58:13;;;;;;;13.63;9.87;;;27.10;99.90;;;;;;5004304;28;20516;-84
2023/06/10 14:00:40;;;;;;;10.83;9.77;;;27.30;99.90;;;;;;5004681;28;20473;-84
2023/06/10 14:03:07;;;;;;;12.30;9.10;;;27.40;1.00;;;;;;5005523;28;20440;-85
2023/06/10 14:05:36;;;;;;;10.40;9.27;;;27.40;99.90;;;;;;5004999;28;20488;-84
2023/06/10 14:08:03;;;;;;;9.40;8.70;;;27.30;99.90;;;;;;5005841;28;20854;-85
2023/06/10 14:13:33;;;;;;;14.30;8.87;;;27.20;99.90;;;;;;4997572;28;20792;-88